sensor_id;sensor_type;location;lat;lon;timestamp;P1;durP1;ratioP1;P2;durP2;ratioP2
20859;SDS011;10590;48.154;11.514;2023-06-04T00:01:05;4.17;;;3.47;;
20859;SDS011;10590;48.154;11.514;2023-06-04T00:06:28;5.47;;;3.67;;
20859;SDS011;10590;48.154;11.514;2023-06-04T00:11:50;9.07;;;2.80;;
20859;SDS011;10590;48.154;11.514;2023-06-04T00:17:12;9.40;;;3.03;;
20859;SDS011;10590;48.154;11.514;2023-06-04T00:22:36;4.20;;;2.87;;
20859;SDS011;10590;48.154;11.514;2023-06-04T00:27:58;5.73;;;2.30;;
20859;SDS011;10590;48.154;11.514;2023-06-04T00:33:20;6.47;;;3.03;;
20859;SDS011;10590;48.154;11.514;2023-06-04T00:38:43;2.77;;;2.47;;
20859;SDS011;10590;48.154;11.514;2023-06-04T00:44:05;2.90;;;2.60;;
20859;SDS011;10590;48.154;11.514;2023-06-04T00:49:27;3.10;;;2.67;;
20859;SDS011;10590;48.154;11.514;2023-06-04T00:54:50;4.67;;;2.30;;
20859;SDS011;10590;48.154;11.514;2023-06-04T01:00:13;5.53;;;2.73;;
20859;SDS011;10590;48.154;11.514;2023-06-04T01:05:36;12.23;;;3.03;;
20859;SDS011;10590;48.154;11.514;2023-06-04T01:11:04;2.97;;;2.57;;
20859;SDS011;10590;48.154;11.514;2023-06-04T01:16:26;3.10;;;2.40;;
20859;SDS011;10590;48.154;11.514;2023-06-04T01:21:51;3.67;;;2.53;;
20859;SDS011;10590;48.154;11.514;2023-06-04T01:27:17;2.70;;;2.37;;
20859;SDS011;10590;48.154;11.514;2023-06-04T01:32:40;7.20;;;2.73;;
20859;SDS011;10590;48.154;11.514;2023-06-04T01:38:02;5.23;;;3.20;;
20859;SDS011;10590;48.154;11.514;2023-06-04T01:43:25;6.10;;;3.37;;
20859;SDS011;10590;48.154;11.514;2023-06-04T01:48:47;5.10;;;3.07;;
20859;SDS011;10590;48.154;11.514;2023-06-04T01:54:09;3.87;;;2.83;;
20859;SDS011;10590;48.154;11.514;2023-06-04T01:59:32;4.30;;;2.57;;
20859;SDS011;10590;48.154;11.514;2023-06-04T02:04:54;7.33;;;2.90;;
20859;SDS011;10590;48.154;11.514;2023-06-04T02:10:17;4.23;;;3.10;;
20859;SDS011;10590;48.154;11.514;2023-06-04T02:15:41;11.07;;;2.90;;
20859;SDS011;10590;48.154;11.514;2023-06-04T02:21:04;2.93;;;2.53;;
20859;SDS011;10590;48.154;11.514;2023-06-04T02:26:26;3.97;;;3.00;;
20859;SDS011;10590;48.154;11.514;2023-06-04T02:31:49;9.13;;;3.20;;
20859;SDS011;10590;48.154;11.514;2023-06-04T02:37:11;4.90;;;3.13;;
20859;SDS011;10590;48.154;11.514;2023-06-04T02:42:33;2.60;;;2.40;;
20859;SDS011;10590;48.154;11.514;2023-06-04T02:47:56;3.87;;;3.23;;
20859;SDS011;10590;48.154;11.514;2023-06-04T02:53:19;4.23;;;2.67;;
20859;SDS011;10590;48.154;11.514;2023-06-04T02:58:48;3.40;;;3.10;;
20859;SDS011;10590;48.154;11.514;2023-06-04T03:04:12;3.07;;;2.73;;
20859;SDS011;10590;48.154;11.514;2023-06-04T03:09:35;3.93;;;2.77;;
20859;SDS011;10590;48.154;11.514;2023-06-04T03:14:57;3.63;;;2.70;;
20859;SDS011;10590;48.154;11.514;2023-06-04T03:20:21;5.03;;;2.80;;
20859;SDS011;10590;48.154;11.514;2023-06-04T03:25:44;5.97;;;2.90;;
20859;SDS011;10590;48.154;11.514;2023-06-04T03:31:06;8.50;;;3.50;;
20859;SDS011;10590;48.154;11.514;2023-06-04T03:36:30;7.63;;;3.30;;
20859;SDS011;10590;48.154;11.514;2023-06-04T03:41:53;3.07;;;2.80;;
20859;SDS011;10590;48.154;11.514;2023-06-04T03:47:15;4.53;;;3.07;;
20859;SDS011;10590;48.154;11.514;2023-06-04T03:52:39;5.77;;;3.23;;
20859;SDS011;10590;48.154;11.514;2023-06-04T03:58:01;4.60;;;3.33;;
20859;SDS011;10590;48.154;11.514;2023-06-04T04:03:23;4.17;;;3.77;;
20859;SDS011;10590;48.154;11.514;2023-06-04T04:08:46;4.60;;;3.57;;
20859;SDS011;10590;48.154;11.514;2023-06-04T04:14:08;4.40;;;3.80;;
20859;SDS011;10590;48.154;11.514;2023-06-04T04:19:30;5.73;;;3.57;;
20859;SDS011;10590;48.154;11.514;2023-06-04T04:24:54;5.17;;;3.17;;
20859;SDS011;10590;48.154;11.514;2023-06-04T04:30:17;11.10;;;3.40;;
20859;SDS011;10590;48.154;11.514;2023-06-04T04:35:39;9.20;;;2.93;;
20859;SDS011;10590;48.154;11.514;2023-06-04T04:41:04;3.43;;;2.60;;
20859;SDS011;10590;48.154;11.514;2023-06-04T04:46:27;3.07;;;2.70;;
20859;SDS011;10590;48.154;11.514;2023-06-04T04:51:49;3.20;;;2.77;;
20859;SDS011;10590;48.154;11.514;2023-06-04T04:57:13;7.87;;;2.83;;
20859;SDS011;10590;48.154;11.514;2023-06-04T05:02:35;3.03;;;2.63;;
20859;SDS011;10590;48.154;11.514;2023-06-04T05:07:57;2.73;;;2.47;;
20859;SDS011;10590;48.154;11.514;2023-06-04T05:13:21;5.37;;;3.03;;
20859;SDS011;10590;48.154;11.514;2023-06-04T05:18:43;4.10;;;2.50;;
20859;SDS011;10590;48.154;11.514;2023-06-04T05:24:05;5.37;;;2.17;;
20859;SDS011;10590;48.154;11.514;2023-06-04T05:29:29;2.57;;;1.90;;
20859;SDS011;10590;48.154;11.514;2023-06-04T05:34:51;2.90;;;2.20;;
20859;SDS011;10590;48.154;11.514;2023-06-04T05:40:13;5.37;;;3.10;;
20859;SDS011;10590;48.154;11.514;2023-06-04T05:45:36;4.90;;;2.60;;
20859;SDS011;10590;48.154;11.514;2023-06-04T05:50:58;2.20;;;2.00;;
20859;SDS011;10590;48.154;11.514;2023-06-04T05:56:20;4.20;;;2.40;;
20859;SDS011;10590;48.154;11.514;2023-06-04T06:01:43;3.27;;;2.10;;
20859;SDS011;10590;48.154;11.514;2023-06-04T06:07:05;3.40;;;2.20;;
20859;SDS011;10590;48.154;11.514;2023-06-04T06:12:27;2.83;;;2.43;;
20859;SDS011;10590;48.154;11.514;2023-06-04T06:17:50;2.57;;;2.03;;
20859;SDS011;10590;48.154;11.514;2023-06-04T06:23:12;4.53;;;2.43;;
20859;SDS011;10590;48.154;11.514;2023-06-04T06:28:34;3.07;;;2.77;;
20859;SDS011;10590;48.154;11.514;2023-06-04T06:33:58;10.23;;;2.40;;
20859;SDS011;10590;48.154;11.514;2023-06-04T06:39:20;2.83;;;2.53;;
20859;SDS011;10590;48.154;11.514;2023-06-04T06:44:43;3.30;;;2.47;;
20859;SDS011;10590;48.154;11.514;2023-06-04T06:50:07;3.20;;;2.60;;
20859;SDS011;10590;48.154;11.514;2023-06-04T06:55:31;3.07;;;2.07;;
20859;SDS011;10590;48.154;11.514;2023-06-04T07:00:53;8.40;;;2.63;;
20859;SDS011;10590;48.154;11.514;2023-06-04T07:06:18;7.83;;;3.70;;
20859;SDS011;10590;48.154;11.514;2023-06-04T07:11:40;5.60;;;2.60;;
20859;SDS011;10590;48.154;11.514;2023-06-04T07:17:02;8.83;;;2.20;;
20859;SDS011;10590;48.154;11.514;2023-06-04T07:22:25;3.53;;;2.50;;
20859;SDS011;10590;48.154;11.514;2023-06-04T07:27:47;2.83;;;2.30;;
20859;SDS011;10590;48.154;11.514;2023-06-04T07:33:11;10.13;;;2.80;;
20859;SDS011;10590;48.154;11.514;2023-06-04T07:38:34;2.17;;;1.93;;
20859;SDS011;10590;48.154;11.514;2023-06-04T07:43:56;3.70;;;2.40;;
20859;SDS011;10590;48.154;11.514;2023-06-04T07:49:18;4.63;;;2.53;;
20859;SDS011;10590;48.154;11.514;2023-06-04T07:54:42;2.40;;;2.20;;
20859;SDS011;10590;48.154;11.514;2023-06-04T08:00:04;3.00;;;2.50;;
20859;SDS011;10590;48.154;11.514;2023-06-04T08:05:28;2.97;;;2.67;;
20859;SDS011;10590;48.154;11.514;2023-06-04T08:10:52;4.03;;;2.33;;
20859;SDS011;10590;48.154;11.514;2023-06-04T08:16:14;2.43;;;2.23;;
20859;SDS011;10590;48.154;11.514;2023-06-04T08:21:36;2.67;;;1.90;;
20859;SDS011;10590;48.154;11.514;2023-06-04T08:26:59;4.77;;;2.30;;
20859;SDS011;10590;48.154;11.514;2023-06-04T08:32:21;3.40;;;2.43;;
20859;SDS011;10590;48.154;11.514;2023-06-04T08:37:43;5.13;;;2.10;;
20859;SDS011;10590;48.154;11.514;2023-06-04T08:43:06;6.30;;;2.43;;
20859;SDS011;10590;48.154;11.514;2023-06-04T08:48:29;3.93;;;1.93;;
20859;SDS011;10590;48.154;11.514;2023-06-04T08:53:51;3.70;;;2.00;;
20859;SDS011;10590;48.154;11.514;2023-06-04T08:59:16;3.43;;;2.27;;
20859;SDS011;10590;48.154;11.514;2023-06-04T09:04:38;4.40;;;2.17;;
20859;SDS011;10590;48.154;11.514;2023-06-04T09:10:01;2.30;;;1.93;;
20859;SDS011;10590;48.154;11.514;2023-06-04T09:15:24;4.07;;;2.03;;
20859;SDS011;10590;48.154;11.514;2023-06-04T09:20:46;7.67;;;2.30;;
20859;SDS011;10590;48.154;11.514;2023-06-04T09:26:08;2.67;;;1.87;;
20859;SDS011;10590;48.154;11.514;2023-06-04T09:31:32;4.47;;;1.87;;
20859;SDS011;10590;48.154;11.514;2023-06-04T09:36:58;3.27;;;2.37;;
20859;SDS011;10590;48.154;11.514;2023-06-04T09:42:20;3.40;;;1.77;;
20859;SDS011;10590;48.154;11.514;2023-06-04T09:47:44;2.92;;;1.75;;
20859;SDS011;10590;48.154;11.514;2023-06-04T09:53:12;3.03;;;1.83;;
20859;SDS011;10590;48.154;11.514;2023-06-04T09:58:35;2.20;;;1.90;;
20859;SDS011;10590;48.154;11.514;2023-06-04T10:04:02;2.63;;;2.10;;
20859;SDS011;10590;48.154;11.514;2023-06-04T10:09:25;2.92;;;1.60;;
20859;SDS011;10590;48.154;11.514;2023-06-04T10:14:50;2.43;;;2.07;;
20859;SDS011;10590;48.154;11.514;2023-06-04T10:20:15;3.30;;;2.07;;
20859;SDS011;10590;48.154;11.514;2023-06-04T10:25:40;9.98;;;2.33;;
20859;SDS011;10590;48.154;11.514;2023-06-04T10:31:03;2.38;;;1.70;;
20859;SDS011;10590;48.154;11.514;2023-06-04T10:36:26;4.05;;;1.65;;
20859;SDS011;10590;48.154;11.514;2023-06-04T10:41:56;2.38;;;2.03;;
20859;SDS011;10590;48.154;11.514;2023-06-04T10:47:20;7.72;;;2.53;;
20859;SDS011;10590;48.154;11.514;2023-06-04T10:52:51;5.53;;;2.10;;
20859;SDS011;10590;48.154;11.514;2023-06-04T10:58:13;6.10;;;2.00;;
20859;SDS011;10590;48.154;11.514;2023-06-04T11:03:36;2.78;;;2.20;;
20859;SDS011;10590;48.154;11.514;2023-06-04T11:09:03;3.53;;;1.77;;
20859;SDS011;10590;48.154;11.514;2023-06-04T11:14:27;2.22;;;1.63;;
20859;SDS011;10590;48.154;11.514;2023-06-04T11:19:50;3.75;;;2.05;;
20859;SDS011;10590;48.154;11.514;2023-06-04T11:25:16;2.47;;;2.07;;
20859;SDS011;10590;48.154;11.514;2023-06-04T11:30:39;3.80;;;1.90;;
20859;SDS011;10590;48.154;11.514;2023-06-04T11:36:00;2.10;;;1.70;;
20859;SDS011;10590;48.154;11.514;2023-06-04T11:41:24;2.13;;;1.93;;
20859;SDS011;10590;48.154;11.514;2023-06-04T11:46:48;3.33;;;2.00;;
20859;SDS011;10590;48.154;11.514;2023-06-04T11:52:12;3.35;;;2.28;;
20859;SDS011;10590;48.154;11.514;2023-06-04T11:57:36;8.43;;;2.17;;
20859;SDS011;10590;48.154;11.514;2023-06-04T12:02:58;4.47;;;1.97;;
20859;SDS011;10590;48.154;11.514;2023-06-04T12:08:20;5.63;;;2.17;;
20859;SDS011;10590;48.154;11.514;2023-06-04T12:13:43;2.50;;;1.73;;
20859;SDS011;10590;48.154;11.514;2023-06-04T12:19:06;2.47;;;1.77;;
20859;SDS011;10590;48.154;11.514;2023-06-04T12:24:29;6.73;;;1.90;;
20859;SDS011;10590;48.154;11.514;2023-06-04T12:29:56;2.10;;;1.65;;
20859;SDS011;10590;48.154;11.514;2023-06-04T12:35:19;3.35;;;1.90;;
20859;SDS011;10590;48.154;11.514;2023-06-04T12:40:41;3.50;;;1.73;;
20859;SDS011;10590;48.154;11.514;2023-06-04T12:46:04;1.58;;;1.45;;
20859;SDS011;10590;48.154;11.514;2023-06-04T12:51:26;7.03;;;1.92;;
20859;SDS011;10590;48.154;11.514;2023-06-04T12:56:48;2.13;;;1.75;;
20859;SDS011;10590;48.154;11.514;2023-06-04T13:02:12;2.50;;;2.30;;
20859;SDS011;10590;48.154;11.514;2023-06-04T13:07:34;2.83;;;2.10;;
20859;SDS011;10590;48.154;11.514;2023-06-04T13:12:55;2.30;;;2.10;;
20859;SDS011;10590;48.154;11.514;2023-06-04T13:18:19;6.73;;;1.63;;
20859;SDS011;10590;48.154;11.514;2023-06-04T13:23:41;4.17;;;2.10;;
20859;SDS011;10590;48.154;11.514;2023-06-04T13:29:03;2.80;;;1.87;;
20859;SDS011;10590;48.154;11.514;2023-06-04T13:34:26;6.60;;;1.87;;
20859;SDS011;10590;48.154;11.514;2023-06-04T13:39:48;1.97;;;1.87;;
20859;SDS011;10590;48.154;11.514;2023-06-04T13:45:10;2.93;;;2.00;;
20859;SDS011;10590;48.154;11.514;2023-06-04T13:50:33;4.60;;;1.73;;
20859;SDS011;10590;48.154;11.514;2023-06-04T13:55:56;1.67;;;1.58;;
20859;SDS011;10590;48.154;11.514;2023-06-04T14:01:19;3.10;;;2.23;;
20859;SDS011;10590;48.154;11.514;2023-06-04T14:06:43;3.47;;;1.93;;
20859;SDS011;10590;48.154;11.514;2023-06-04T14:12:05;2.53;;;1.90;;
20859;SDS011;10590;48.154;11.514;2023-06-04T14:17:27;2.45;;;2.00;;
20859;SDS011;10590;48.154;11.514;2023-06-04T14:22:50;3.60;;;2.20;;
20859;SDS011;10590;48.154;11.514;2023-06-04T14:28:12;9.17;;;2.43;;
20859;SDS011;10590;48.154;11.514;2023-06-04T14:33:35;2.93;;;2.40;;
20859;SDS011;10590;48.154;11.514;2023-06-04T14:38:58;3.77;;;2.10;;
20859;SDS011;10590;48.154;11.514;2023-06-04T14:44:21;2.90;;;2.33;;
20859;SDS011;10590;48.154;11.514;2023-06-04T14:49:43;2.63;;;1.90;;
20859;SDS011;10590;48.154;11.514;2023-06-04T14:55:07;2.13;;;1.90;;
20859;SDS011;10590;48.154;11.514;2023-06-04T15:00:30;3.27;;;2.23;;
20859;SDS011;10590;48.154;11.514;2023-06-04T15:05:52;4.43;;;1.90;;
20859;SDS011;10590;48.154;11.514;2023-06-04T15:11:15;5.43;;;2.27;;
20859;SDS011;10590;48.154;11.514;2023-06-04T15:16:37;6.97;;;2.73;;
20859;SDS011;10590;48.154;11.514;2023-06-04T15:21:59;2.87;;;2.20;;
20859;SDS011;10590;48.154;11.514;2023-06-04T15:27:23;7.10;;;2.10;;
20859;SDS011;10590;48.154;11.514;2023-06-04T15:32:44;3.20;;;2.17;;
20859;SDS011;10590;48.154;11.514;2023-06-04T15:38:06;2.87;;;1.70;;
20859;SDS011;10590;48.154;11.514;2023-06-04T15:43:30;7.27;;;2.00;;
20859;SDS011;10590;48.154;11.514;2023-06-04T15:48:52;2.30;;;2.00;;
20859;SDS011;10590;48.154;11.514;2023-06-04T15:54:14;4.40;;;2.20;;
20859;SDS011;10590;48.154;11.514;2023-06-04T15:59:40;3.47;;;2.13;;
20859;SDS011;10590;48.154;11.514;2023-06-04T16:05:02;2.87;;;2.20;;
20859;SDS011;10590;48.154;11.514;2023-06-04T16:10:25;2.23;;;2.00;;
20859;SDS011;10590;48.154;11.514;2023-06-04T16:15:48;3.87;;;2.50;;
20859;SDS011;10590;48.154;11.514;2023-06-04T16:21:10;2.80;;;2.00;;
20859;SDS011;10590;48.154;11.514;2023-06-04T16:26:35;2.80;;;2.10;;
20859;SDS011;10590;48.154;11.514;2023-06-04T16:31:58;3.60;;;2.47;;
20859;SDS011;10590;48.154;11.514;2023-06-04T16:37:20;3.17;;;2.03;;
20859;SDS011;10590;48.154;11.514;2023-06-04T16:42:42;3.80;;;1.93;;
20859;SDS011;10590;48.154;11.514;2023-06-04T16:48:06;5.97;;;2.80;;
20859;SDS011;10590;48.154;11.514;2023-06-04T16:53:28;3.57;;;2.33;;
20859;SDS011;10590;48.154;11.514;2023-06-04T16:58:50;4.10;;;2.00;;
20859;SDS011;10590;48.154;11.514;2023-06-04T17:04:13;4.50;;;2.10;;
20859;SDS011;10590;48.154;11.514;2023-06-04T17:09:35;2.20;;;1.90;;
20859;SDS011;10590;48.154;11.514;2023-06-04T17:14:57;3.00;;;2.23;;
20859;SDS011;10590;48.154;11.514;2023-06-04T17:20:21;3.83;;;2.67;;
20859;SDS011;10590;48.154;11.514;2023-06-04T17:25:43;4.37;;;2.33;;
20859;SDS011;10590;48.154;11.514;2023-06-04T17:31:05;3.87;;;2.10;;
20859;SDS011;10590;48.154;11.514;2023-06-04T17:36:28;5.17;;;2.60;;
20859;SDS011;10590;48.154;11.514;2023-06-04T17:41:53;4.70;;;2.50;;
20859;SDS011;10590;48.154;11.514;2023-06-04T17:47:14;4.97;;;2.70;;
20859;SDS011;10590;48.154;11.514;2023-06-04T17:52:38;4.40;;;2.60;;
20859;SDS011;10590;48.154;11.514;2023-06-04T17:58:00;4.60;;;2.63;;
20859;SDS011;10590;48.154;11.514;2023-06-04T18:03:22;3.83;;;2.43;;
20859;SDS011;10590;48.154;11.514;2023-06-04T18:08:48;4.17;;;2.80;;
20859;SDS011;10590;48.154;11.514;2023-06-04T18:14:10;4.13;;;2.50;;
20859;SDS011;10590;48.154;11.514;2023-06-04T18:19:32;4.00;;;2.23;;
20859;SDS011;10590;48.154;11.514;2023-06-04T18:24:59;3.17;;;2.50;;
20859;SDS011;10590;48.154;11.514;2023-06-04T18:30:21;4.00;;;2.60;;
20859;SDS011;10590;48.154;11.514;2023-06-04T18:35:43;3.33;;;2.30;;
20859;SDS011;10590;48.154;11.514;2023-06-04T18:41:08;9.97;;;2.30;;
20859;SDS011;10590;48.154;11.514;2023-06-04T18:46:31;3.47;;;2.43;;
20859;SDS011;10590;48.154;11.514;2023-06-04T18:51:53;6.23;;;2.57;;
20859;SDS011;10590;48.154;11.514;2023-06-04T18:57:16;3.80;;;2.30;;
20859;SDS011;10590;48.154;11.514;2023-06-04T19:02:39;3.93;;;2.40;;
20859;SDS011;10590;48.154;11.514;2023-06-04T19:08:01;5.23;;;2.40;;
20859;SDS011;10590;48.154;11.514;2023-06-04T19:13:24;3.47;;;2.30;;
20859;SDS011;10590;48.154;11.514;2023-06-04T19:18:46;6.87;;;2.50;;
20859;SDS011;10590;48.154;11.514;2023-06-04T19:24:08;6.77;;;2.73;;
20859;SDS011;10590;48.154;11.514;2023-06-04T19:29:34;6.73;;;2.73;;
20859;SDS011;10590;48.154;11.514;2023-06-04T19:35:03;3.73;;;2.43;;
20859;SDS011;10590;48.154;11.514;2023-06-04T19:40:25;5.10;;;2.60;;
20859;SDS011;10590;48.154;11.514;2023-06-04T19:45:49;7.50;;;2.43;;
20859;SDS011;10590;48.154;11.514;2023-06-04T19:51:11;2.70;;;2.47;;
20859;SDS011;10590;48.154;11.514;2023-06-04T19:56:34;4.73;;;2.33;;
20859;SDS011;10590;48.154;11.514;2023-06-04T20:01:57;2.77;;;2.27;;
20859;SDS011;10590;48.154;11.514;2023-06-04T20:07:19;5.70;;;2.97;;
20859;SDS011;10590;48.154;11.514;2023-06-04T20:12:42;3.63;;;2.70;;
20859;SDS011;10590;48.154;11.514;2023-06-04T20:18:05;4.27;;;2.73;;
20859;SDS011;10590;48.154;11.514;2023-06-04T20:23:30;4.57;;;3.10;;
20859;SDS011;10590;48.154;11.514;2023-06-04T20:28:52;4.53;;;2.77;;
20859;SDS011;10590;48.154;11.514;2023-06-04T20:34:23;3.53;;;2.73;;
20859;SDS011;10590;48.154;11.514;2023-06-04T20:39:45;5.03;;;3.13;;
20859;SDS011;10590;48.154;11.514;2023-06-04T20:45:09;5.47;;;2.73;;
20859;SDS011;10590;48.154;11.514;2023-06-04T20:50:33;2.87;;;2.60;;
20859;SDS011;10590;48.154;11.514;2023-06-04T20:55:55;6.87;;;2.83;;
20859;SDS011;10590;48.154;11.514;2023-06-04T21:01:17;3.93;;;2.60;;
20859;SDS011;10590;48.154;11.514;2023-06-04T21:06:41;2.47;;;2.13;;
20859;SDS011;10590;48.154;11.514;2023-06-04T21:12:03;3.43;;;2.67;;
20859;SDS011;10590;48.154;11.514;2023-06-04T21:17:27;4.43;;;2.90;;
20859;SDS011;10590;48.154;11.514;2023-06-04T21:22:51;3.30;;;2.80;;
20859;SDS011;10590;48.154;11.514;2023-06-04T21:28:13;4.80;;;2.83;;
20859;SDS011;10590;48.154;11.514;2023-06-04T21:33:35;7.13;;;3.00;;
20859;SDS011;10590;48.154;11.514;2023-06-04T21:39:01;4.57;;;2.87;;
20859;SDS011;10590;48.154;11.514;2023-06-04T21:44:23;4.20;;;2.63;;
20859;SDS011;10590;48.154;11.514;2023-06-04T21:49:45;4.63;;;2.67;;
20859;SDS011;10590;48.154;11.514;2023-06-04T21:55:09;4.60;;;2.90;;
20859;SDS011;10590;48.154;11.514;2023-06-04T22:00:31;6.17;;;2.57;;
20859;SDS011;10590;48.154;11.514;2023-06-04T22:05:53;6.53;;;2.43;;
20859;SDS011;10590;48.154;11.514;2023-06-04T22:11:16;3.13;;;2.70;;
20859;SDS011;10590;48.154;11.514;2023-06-04T22:16:38;5.63;;;3.30;;
20859;SDS011;10590;48.154;11.514;2023-06-04T22:22:04;4.27;;;2.80;;
20859;SDS011;10590;48.154;11.514;2023-06-04T22:27:27;4.33;;;3.40;;
20859;SDS011;10590;48.154;11.514;2023-06-04T22:32:49;5.37;;;3.03;;
20859;SDS011;10590;48.154;11.514;2023-06-04T22:38:11;4.67;;;2.67;;
20859;SDS011;10590;48.154;11.514;2023-06-04T22:43:34;3.57;;;2.83;;
20859;SDS011;10590;48.154;11.514;2023-06-04T22:48:56;3.87;;;3.10;;
20859;SDS011;10590;48.154;11.514;2023-06-04T22:54:21;5.10;;;2.93;;
20859;SDS011;10590;48.154;11.514;2023-06-04T22:59:44;5.70;;;2.87;;
20859;SDS011;10590;48.154;11.514;2023-06-04T23:05:06;2.47;;;2.27;;
20859;SDS011;10590;48.154;11.514;2023-06-04T23:10:29;3.53;;;2.50;;
20859;SDS011;10590;48.154;11.514;2023-06-04T23:15:53;6.50;;;3.03;;
20859;SDS011;10590;48.154;11.514;2023-06-04T23:21:17;3.70;;;3.13;;
20859;SDS011;10590;48.154;11.514;2023-06-04T23:26:39;3.93;;;2.57;;
20859;SDS011;10590;48.154;11.514;2023-06-04T23:32:02;6.30;;;3.67;;
20859;SDS011;10590;48.154;11.514;2023-06-04T23:37:24;5.30;;;3.07;;
20859;SDS011;10590;48.154;11.514;2023-06-04T23:42:46;7.00;;;3.57;;
20859;SDS011;10590;48.154;11.514;2023-06-04T23:48:10;3.43;;;2.80;;
20859;SDS011;10590;48.154;11.514;2023-06-04T23:53:32;3.30;;;3.00;;
20859;SDS011;10590;48.154;11.514;2023-06-04T23:58:57;3.70;;;3.30;;
